sensor_id;sensor_type;location;lat;lon;timestamp;pressure;altitude;pressure_sealevel;temperature;humidity
63554;BME280;49699;48.072;7.800;2023-04-15T00:01:57;98486.47;;;4.81;71.21
63554;BME280;49699;48.072;7.800;2023-04-15T00:04:24;98482.31;;;4.79;71.39
63554;BME280;49699;48.072;7.800;2023-04-15T00:06:52;98481.69;;;4.74;71.17
63554;BME280;49699;48.072;7.800;2023-04-15T00:09:19;98478.34;;;4.72;71.10
63554;BME280;49699;48.072;7.800;2023-04-15T00:11:44;98484.41;;;4.71;71.16
63554;BME280;49699;48.072;7.800;2023-04-15T00:14:11;98479.31;;;4.69;70.95
63554;BME280;49699;48.072;7.800;2023-04-15T00:16:36;98473.25;;;4.70;70.85
63554;BME280;49699;48.072;7.800;2023-04-15T00:19:01;98472.44;;;4.70;71.24
63554;BME280;49699;48.072;7.800;2023-04-15T00:21:27;98467.28;;;4.70;71.31
63554;BME280;49699;48.072;7.800;2023-04-15T00:23:53;98475.25;;;4.65;71.09
63554;BME280;49699;48.072;7.800;2023-04-15T00:26:18;98472.69;;;4.65;71.67
63554;BME280;49699;48.072;7.800;2023-04-15T00:28:45;98473.34;;;4.69;71.21
63554;BME280;49699;48.072;7.800;2023-04-15T00:31:11;98470.63;;;4.72;71.30
63554;BME280;49699;48.072;7.800;2023-04-15T00:33:36;98471.38;;;4.74;71.02
63554;BME280;49699;48.072;7.800;2023-04-15T00:36:01;98469.50;;;4.77;71.16
63554;BME280;49699;48.072;7.800;2023-04-15T00:38:27;98477.72;;;4.84;70.89
63554;BME280;49699;48.072;7.800;2023-04-15T00:40:53;98473.94;;;4.91;71.07
63554;BME280;49699;48.072;7.800;2023-04-15T00:43:19;98474.56;;;4.96;70.90
63554;BME280;49699;48.072;7.800;2023-04-15T00:45:44;98474.41;;;4.99;70.97
63554;BME280;49699;48.072;7.800;2023-04-15T00:48:11;98471.84;;;4.99;71.10
63554;BME280;49699;48.072;7.800;2023-04-15T00:50:36;98477.00;;;4.99;70.88
63554;BME280;49699;48.072;7.800;2023-04-15T00:53:02;98470.94;;;5.00;70.96
63554;BME280;49699;48.072;7.800;2023-04-15T00:55:27;98475.06;;;5.03;71.14
63554;BME280;49699;48.072;7.800;2023-04-15T00:57:53;98470.44;;;5.09;70.87
63554;BME280;49699;48.072;7.800;2023-04-15T01:00:19;98471.06;;;5.14;70.41
63554;BME280;49699;48.072;7.800;2023-04-15T01:02:44;98459.56;;;5.20;70.45
63554;BME280;49699;48.072;7.800;2023-04-15T01:05:10;98459.25;;;5.26;70.60
63554;BME280;49699;48.072;7.800;2023-04-15T01:07:35;98455.53;;;5.32;70.17
63554;BME280;49699;48.072;7.800;2023-04-15T01:10:01;98449.25;;;5.37;70.14
63554;BME280;49699;48.072;7.800;2023-04-15T01:12:27;98451.72;;;5.39;69.51
63554;BME280;49699;48.072;7.800;2023-04-15T01:14:53;98442.06;;;5.42;69.86
63554;BME280;49699;48.072;7.800;2023-04-15T01:17:19;98435.25;;;5.41;69.56
63554;BME280;49699;48.072;7.800;2023-04-15T01:19:45;98437.00;;;5.41;69.84
63554;BME280;49699;48.072;7.800;2023-04-15T01:22:10;98439.66;;;5.39;69.30
63554;BME280;49699;48.072;7.800;2023-04-15T01:24:37;98444.09;;;5.37;69.98
63554;BME280;49699;48.072;7.800;2023-04-15T01:27:02;98439.91;;;5.35;69.60
63554;BME280;49699;48.072;7.800;2023-04-15T01:29:29;98445.22;;;5.32;69.66
63554;BME280;49699;48.072;7.800;2023-04-15T01:31:55;98443.63;;;5.29;69.96
63554;BME280;49699;48.072;7.800;2023-04-15T01:34:20;98448.88;;;5.28;69.76
63554;BME280;49699;48.072;7.800;2023-04-15T01:36:46;98450.63;;;5.27;69.90
63554;BME280;49699;48.072;7.800;2023-04-15T01:39:12;98440.28;;;5.27;70.30
63554;BME280;49699;48.072;7.800;2023-04-15T01:41:38;98443.72;;;5.28;70.31
63554;BME280;49699;48.072;7.800;2023-04-15T01:44:04;98441.81;;;5.31;70.27
63554;BME280;49699;48.072;7.800;2023-04-15T01:46:31;98439.16;;;5.33;70.10
63554;BME280;49699;48.072;7.800;2023-04-15T01:48:56;98441.59;;;5.36;70.16
63554;BME280;49699;48.072;7.800;2023-04-15T01:51:24;98447.38;;;5.39;70.03
63554;BME280;49699;48.072;7.800;2023-04-15T01:53:49;98439.66;;;5.39;69.84
63554;BME280;49699;48.072;7.800;2023-04-15T01:56:15;98442.97;;;5.41;69.98
63554;BME280;49699;48.072;7.800;2023-04-15T01:58:42;98449.66;;;5.45;69.67
63554;BME280;49699;48.072;7.800;2023-04-15T02:01:08;98444.50;;;5.45;69.68
63554;BME280;49699;48.072;7.800;2023-04-15T02:03:34;98449.56;;;5.47;69.59
63554;BME280;49699;48.072;7.800;2023-04-15T02:05:59;98445.19;;;5.49;69.87
63554;BME280;49699;48.072;7.800;2023-04-15T02:08:26;98441.59;;;5.51;69.62
63554;BME280;49699;48.072;7.800;2023-04-15T02:10:52;98445.78;;;5.54;69.59
63554;BME280;49699;48.072;7.800;2023-04-15T02:13:18;98444.75;;;5.56;69.63
63554;BME280;49699;48.072;7.800;2023-04-15T02:15:49;98454.91;;;5.59;69.54
63554;BME280;49699;48.072;7.800;2023-04-15T02:18:17;98445.44;;;5.60;69.59
63554;BME280;49699;48.072;7.800;2023-04-15T02:20:43;98443.00;;;5.57;69.96
63554;BME280;49699;48.072;7.800;2023-04-15T02:23:08;98448.25;;;5.55;69.95
63554;BME280;49699;48.072;7.800;2023-04-15T02:25:33;98443.00;;;5.57;69.80
63554;BME280;49699;48.072;7.800;2023-04-15T02:27:59;98438.69;;;5.57;69.81
63554;BME280;49699;48.072;7.800;2023-04-15T02:30:24;98431.69;;;5.59;70.00
63554;BME280;49699;48.072;7.800;2023-04-15T02:32:50;98439.34;;;5.61;69.81
63554;BME280;49699;48.072;7.800;2023-04-15T02:35:15;98429.88;;;5.62;70.07
63554;BME280;49699;48.072;7.800;2023-04-15T02:37:43;98435.84;;;5.62;69.90
63554;BME280;49699;48.072;7.800;2023-04-15T02:40:11;98427.28;;;5.62;69.95
63554;BME280;49699;48.072;7.800;2023-04-15T02:42:37;98432.44;;;5.62;70.44
63554;BME280;49699;48.072;7.800;2023-04-15T02:45:02;98429.09;;;5.59;70.23
63554;BME280;49699;48.072;7.800;2023-04-15T02:47:31;98436.78;;;5.61;70.18
63554;BME280;49699;48.072;7.800;2023-04-15T02:49:56;98435.09;;;5.60;70.15
63554;BME280;49699;48.072;7.800;2023-04-15T02:52:24;98436.78;;;5.61;70.26
63554;BME280;49699;48.072;7.800;2023-04-15T02:54:50;98432.53;;;5.60;70.20
63554;BME280;49699;48.072;7.800;2023-04-15T02:57:16;98437.69;;;5.60;70.23
63554;BME280;49699;48.072;7.800;2023-04-15T02:59:41;98446.25;;;5.61;70.25
63554;BME280;49699;48.072;7.800;2023-04-15T03:02:06;98431.59;;;5.61;70.45
63554;BME280;49699;48.072;7.800;2023-04-15T03:04:32;98442.69;;;5.63;70.32
63554;BME280;49699;48.072;7.800;2023-04-15T03:06:57;98441.78;;;5.64;70.30
63554;BME280;49699;48.072;7.800;2023-04-15T03:09:24;98437.38;;;5.66;70.36
63554;BME280;49699;48.072;7.800;2023-04-15T03:11:49;98439.94;;;5.66;70.20
63554;BME280;49699;48.072;7.800;2023-04-15T03:14:18;98443.38;;;5.67;70.34
63554;BME280;49699;48.072;7.800;2023-04-15T03:16:45;98443.22;;;5.70;69.95
63554;BME280;49699;48.072;7.800;2023-04-15T03:19:12;98437.06;;;5.72;69.97
63554;BME280;49699;48.072;7.800;2023-04-15T03:21:40;98436.84;;;5.75;69.52
63554;BME280;49699;48.072;7.800;2023-04-15T03:24:05;98438.38;;;5.79;69.50
63554;BME280;49699;48.072;7.800;2023-04-15T03:26:31;98438.22;;;5.82;69.56
63554;BME280;49699;48.072;7.800;2023-04-15T03:29:08;98437.28;;;5.83;69.37
63554;BME280;49699;48.072;7.800;2023-04-15T03:31:34;98438.81;;;5.87;69.21
63554;BME280;49699;48.072;7.800;2023-04-15T03:33:59;98431.00;;;5.89;69.23
63554;BME280;49699;48.072;7.800;2023-04-15T03:36:27;98432.69;;;5.90;69.07
63554;BME280;49699;48.072;7.800;2023-04-15T03:38:53;98431.84;;;5.89;68.89
63554;BME280;49699;48.072;7.800;2023-04-15T03:41:19;98421.44;;;5.91;68.83
63554;BME280;49699;48.072;7.800;2023-04-15T03:43:44;98431.66;;;5.92;68.68
63554;BME280;49699;48.072;7.800;2023-04-15T03:46:09;98427.16;;;5.96;68.68
63554;BME280;49699;48.072;7.800;2023-04-15T03:48:35;98427.00;;;5.99;68.69
63554;BME280;49699;48.072;7.800;2023-04-15T03:51:00;98425.16;;;6.01;68.48
63554;BME280;49699;48.072;7.800;2023-04-15T03:53:26;98425.91;;;6.03;68.22
63554;BME280;49699;48.072;7.800;2023-04-15T03:55:51;98421.41;;;6.07;68.26
63554;BME280;49699;48.072;7.800;2023-04-15T03:58:16;98427.41;;;6.07;68.31
63554;BME280;49699;48.072;7.800;2023-04-15T04:00:42;98428.88;;;6.11;68.39
63554;BME280;49699;48.072;7.800;2023-04-15T04:03:08;98429.63;;;6.13;68.39
63554;BME280;49699;48.072;7.800;2023-04-15T04:05:33;98426.22;;;6.13;68.15
63554;BME280;49699;48.072;7.800;2023-04-15T04:08:01;98433.88;;;6.14;68.41
63554;BME280;49699;48.072;7.800;2023-04-15T04:10:26;98428.63;;;6.16;68.31
63554;BME280;49699;48.072;7.800;2023-04-15T04:12:51;98431.22;;;6.16;68.41
63554;BME280;49699;48.072;7.800;2023-04-15T04:15:17;98439.81;;;6.16;68.32
63554;BME280;49699;48.072;7.800;2023-04-15T04:17:42;98428.47;;;6.19;68.26
63554;BME280;49699;48.072;7.800;2023-04-15T04:20:07;98439.63;;;6.19;68.23
63554;BME280;49699;48.072;7.800;2023-04-15T04:22:39;98442.13;;;6.21;68.24
63554;BME280;49699;48.072;7.800;2023-04-15T04:25:05;98445.47;;;6.23;68.30
63554;BME280;49699;48.072;7.800;2023-04-15T04:27:32;98441.97;;;6.24;68.22
63554;BME280;49699;48.072;7.800;2023-04-15T04:29:57;98448.38;;;6.17;68.38
63554;BME280;49699;48.072;7.800;2023-04-15T04:32:23;98450.75;;;6.06;68.76
63554;BME280;49699;48.072;7.800;2023-04-15T04:34:48;98450.31;;;5.98;69.31
63554;BME280;49699;48.072;7.800;2023-04-15T04:37:14;98450.63;;;5.91;69.89
63554;BME280;49699;48.072;7.800;2023-04-15T04:39:39;98444.81;;;5.88;69.99
63554;BME280;49699;48.072;7.800;2023-04-15T04:42:04;98448.28;;;5.87;70.15
63554;BME280;49699;48.072;7.800;2023-04-15T04:44:30;98449.91;;;5.89;70.06
63554;BME280;49699;48.072;7.800;2023-04-15T04:46:55;98453.13;;;5.93;69.93
63554;BME280;49699;48.072;7.800;2023-04-15T04:49:21;98452.97;;;5.96;70.13
63554;BME280;49699;48.072;7.800;2023-04-15T04:51:46;98461.41;;;6.00;69.93
63554;BME280;49699;48.072;7.800;2023-04-15T04:54:12;98460.41;;;6.02;69.57
63554;BME280;49699;48.072;7.800;2023-04-15T04:56:37;98473.00;;;6.08;69.71
63554;BME280;49699;48.072;7.800;2023-04-15T04:59:04;98466.72;;;6.12;69.57
63554;BME280;49699;48.072;7.800;2023-04-15T05:01:29;98469.97;;;6.16;69.54
63554;BME280;49699;48.072;7.800;2023-04-15T05:03:54;98463.81;;;6.18;69.37
63554;BME280;49699;48.072;7.800;2023-04-15T05:06:20;98464.56;;;6.20;69.46
63554;BME280;49699;48.072;7.800;2023-04-15T05:08:46;98465.22;;;6.24;69.35
63554;BME280;49699;48.072;7.800;2023-04-15T05:11:11;98462.44;;;6.27;69.32
63554;BME280;49699;48.072;7.800;2023-04-15T05:13:37;98469.13;;;6.31;69.04
63554;BME280;49699;48.072;7.800;2023-04-15T05:16:05;98474.03;;;6.36;69.19
63554;BME280;49699;48.072;7.800;2023-04-15T05:18:31;98475.53;;;6.40;68.46
63554;BME280;49699;48.072;7.800;2023-04-15T05:20:57;98477.75;;;6.46;68.42
63554;BME280;49699;48.072;7.800;2023-04-15T05:23:22;98484.53;;;6.48;68.15
63554;BME280;49699;48.072;7.800;2023-04-15T05:25:47;98484.19;;;6.54;67.81
63554;BME280;49699;48.072;7.800;2023-04-15T05:28:13;98488.09;;;6.61;67.86
63554;BME280;49699;48.072;7.800;2023-04-15T05:30:38;98483.41;;;6.68;67.36
63554;BME280;49699;48.072;7.800;2023-04-15T05:33:03;98486.56;;;6.73;67.18
63554;BME280;49699;48.072;7.800;2023-04-15T05:35:29;98487.22;;;6.77;67.40
63554;BME280;49699;48.072;7.800;2023-04-15T05:37:54;98491.41;;;6.79;67.19
63554;BME280;49699;48.072;7.800;2023-04-15T05:40:20;98490.28;;;6.83;67.18
63554;BME280;49699;48.072;7.800;2023-04-15T05:42:45;98486.78;;;6.84;67.00
63554;BME280;49699;48.072;7.800;2023-04-15T05:45:10;98489.19;;;6.87;66.99
63554;BME280;49699;48.072;7.800;2023-04-15T05:47:36;98497.69;;;6.89;66.88
63554;BME280;49699;48.072;7.800;2023-04-15T05:50:02;98500.13;;;6.92;66.83
63554;BME280;49699;48.072;7.800;2023-04-15T05:52:27;98497.97;;;6.99;66.62
63554;BME280;49699;48.072;7.800;2023-04-15T05:54:52;98505.56;;;7.02;66.65
63554;BME280;49699;48.072;7.800;2023-04-15T05:57:18;98496.63;;;7.08;66.57
63554;BME280;49699;48.072;7.800;2023-04-15T05:59:43;98498.88;;;7.14;66.25
63554;BME280;49699;48.072;7.800;2023-04-15T06:02:09;98496.81;;;7.19;66.39
63554;BME280;49699;48.072;7.800;2023-04-15T06:04:34;98495.56;;;7.26;66.12
63554;BME280;49699;48.072;7.800;2023-04-15T06:06:59;98498.53;;;7.34;65.86
63554;BME280;49699;48.072;7.800;2023-04-15T06:09:25;98489.09;;;7.47;65.35
63554;BME280;49699;48.072;7.800;2023-04-15T06:11:50;98495.94;;;7.62;65.45
63554;BME280;49699;48.072;7.800;2023-04-15T06:14:16;98484.75;;;7.76;65.02
63554;BME280;49699;48.072;7.800;2023-04-15T06:16:41;98491.56;;;7.91;64.56
63554;BME280;49699;48.072;7.800;2023-04-15T06:19:06;98482.13;;;8.05;64.36
63554;BME280;49699;48.072;7.800;2023-04-15T06:21:31;98474.59;;;8.14;63.84
63554;BME280;49699;48.072;7.800;2023-04-15T06:23:57;98496.63;;;8.21;63.98
63554;BME280;49699;48.072;7.800;2023-04-15T06:26:23;98485.94;;;8.26;63.81
63554;BME280;49699;48.072;7.800;2023-04-15T06:28:48;98485.66;;;8.30;63.82
63554;BME280;49699;48.072;7.800;2023-04-15T06:31:13;98485.41;;;8.35;63.83
63554;BME280;49699;48.072;7.800;2023-04-15T06:33:39;98487.06;;;8.36;64.04
63554;BME280;49699;48.072;7.800;2023-04-15T06:36:04;98489.56;;;8.38;63.94
63554;BME280;49699;48.072;7.800;2023-04-15T06:38:29;98490.41;;;8.38;63.91
63554;BME280;49699;48.072;7.800;2023-04-15T06:40:55;98498.00;;;8.41;64.00
63554;BME280;49699;48.072;7.800;2023-04-15T06:43:20;98494.34;;;8.44;64.07
63554;BME280;49699;48.072;7.800;2023-04-15T06:45:46;98492.41;;;8.47;63.74
63554;BME280;49699;48.072;7.800;2023-04-15T06:48:11;98491.09;;;8.54;63.77
63554;BME280;49699;48.072;7.800;2023-04-15T06:50:36;98486.13;;;8.64;63.60
63554;BME280;49699;48.072;7.800;2023-04-15T06:53:02;98488.88;;;8.75;63.30
63554;BME280;49699;48.072;7.800;2023-04-15T06:55:27;98489.91;;;8.85;63.06
63554;BME280;49699;48.072;7.800;2023-04-15T06:57:52;98492.75;;;8.95;63.00
63554;BME280;49699;48.072;7.800;2023-04-15T07:00:17;98490.56;;;9.01;62.28
63554;BME280;49699;48.072;7.800;2023-04-15T07:02:43;98486.75;;;9.07;62.16
63554;BME280;49699;48.072;7.800;2023-04-15T07:05:09;98486.44;;;9.12;62.43
63554;BME280;49699;48.072;7.800;2023-04-15T07:07:34;98480.81;;;9.18;62.01
63554;BME280;49699;48.072;7.800;2023-04-15T07:10:00;98487.38;;;9.23;61.78
63554;BME280;49699;48.072;7.800;2023-04-15T07:12:27;98485.22;;;9.30;61.72
63554;BME280;49699;48.072;7.800;2023-04-15T07:14:53;98483.94;;;9.35;61.51
63554;BME280;49699;48.072;7.800;2023-04-15T07:17:18;98480.13;;;9.41;61.76
63554;BME280;49699;48.072;7.800;2023-04-15T07:19:43;98478.78;;;9.48;61.55
63554;BME280;49699;48.072;7.800;2023-04-15T07:22:09;98481.66;;;9.56;61.27
63554;BME280;49699;48.072;7.800;2023-04-15T07:24:34;98477.94;;;9.60;61.06
63554;BME280;49699;48.072;7.800;2023-04-15T07:27:00;98480.22;;;9.65;61.11
63554;BME280;49699;48.072;7.800;2023-04-15T07:29:25;98471.25;;;9.69;61.25
63554;BME280;49699;48.072;7.800;2023-04-15T07:31:51;98466.47;;;9.75;60.95
63554;BME280;49699;48.072;7.800;2023-04-15T07:34:16;98475.50;;;9.83;60.89
63554;BME280;49699;48.072;7.800;2023-04-15T07:36:42;98472.47;;;9.89;60.66
63554;BME280;49699;48.072;7.800;2023-04-15T07:39:07;98475.47;;;9.95;60.67
63554;BME280;49699;48.072;7.800;2023-04-15T07:41:33;98476.72;;;10.02;60.78
63554;BME280;49699;48.072;7.800;2023-04-15T07:43:58;98480.00;;;10.04;60.83
63554;BME280;49699;48.072;7.800;2023-04-15T07:46:23;98484.16;;;10.07;60.68
63554;BME280;49699;48.072;7.800;2023-04-15T07:48:51;98483.97;;;10.10;60.88
63554;BME280;49699;48.072;7.800;2023-04-15T07:51:16;98489.16;;;10.10;60.75
63554;BME280;49699;48.072;7.800;2023-04-15T07:53:42;98489.06;;;10.12;61.22
63554;BME280;49699;48.072;7.800;2023-04-15T07:56:07;98484.38;;;10.17;60.85
63554;BME280;49699;48.072;7.800;2023-04-15T07:58:32;98491.53;;;10.26;60.25
63554;BME280;49699;48.072;7.800;2023-04-15T08:00:57;98495.16;;;10.36;60.68
63554;BME280;49699;48.072;7.800;2023-04-15T08:03:23;98491.88;;;10.45;60.01
63554;BME280;49699;48.072;7.800;2023-04-15T08:05:49;98490.63;;;10.51;59.99
63554;BME280;49699;48.072;7.800;2023-04-15T08:08:14;98497.25;;;10.55;60.42
63554;BME280;49699;48.072;7.800;2023-04-15T08:10:39;98498.19;;;10.54;60.36
63554;BME280;49699;48.072;7.800;2023-04-15T08:13:05;98498.19;;;10.54;60.31
63554;BME280;49699;48.072;7.800;2023-04-15T08:15:30;98501.53;;;10.56;60.39
63554;BME280;49699;48.072;7.800;2023-04-15T08:17:56;98500.97;;;10.63;60.05
63554;BME280;49699;48.072;7.800;2023-04-15T08:20:23;98506.56;;;10.70;60.17
63554;BME280;49699;48.072;7.800;2023-04-15T08:22:48;98505.97;;;10.77;59.66
63554;BME280;49699;48.072;7.800;2023-04-15T08:25:16;98514.28;;;10.83;59.71
63554;BME280;49699;48.072;7.800;2023-04-15T08:27:41;98512.19;;;10.88;59.79
63554;BME280;49699;48.072;7.800;2023-04-15T08:30:06;98508.28;;;10.93;59.43
63554;BME280;49699;48.072;7.800;2023-04-15T08:32:32;98510.22;;;11.02;59.56
63554;BME280;49699;48.072;7.800;2023-04-15T08:34:57;98509.78;;;11.08;59.32
63554;BME280;49699;48.072;7.800;2023-04-15T08:37:23;98514.91;;;11.21;58.71
63554;BME280;49699;48.072;7.800;2023-04-15T08:39:48;98513.75;;;11.36;58.86
63554;BME280;49699;48.072;7.800;2023-04-15T08:42:18;98509.75;;;11.43;58.60
63554;BME280;49699;48.072;7.800;2023-04-15T08:44:46;98517.44;;;11.45;58.72
63554;BME280;49699;48.072;7.800;2023-04-15T08:47:12;98518.63;;;11.52;58.27
63554;BME280;49699;48.072;7.800;2023-04-15T08:49:38;98516.72;;;11.65;58.13
63554;BME280;49699;48.072;7.800;2023-04-15T08:52:04;98525.22;;;11.80;57.77
63554;BME280;49699;48.072;7.800;2023-04-15T08:54:30;98522.00;;;11.88;57.44
63554;BME280;49699;48.072;7.800;2023-04-15T08:56:56;98528.63;;;11.92;57.52
63554;BME280;49699;48.072;7.800;2023-04-15T08:59:21;98518.78;;;12.06;56.93
63554;BME280;49699;48.072;7.800;2023-04-15T09:01:48;98526.47;;;12.19;56.51
63554;BME280;49699;48.072;7.800;2023-04-15T09:04:14;98522.81;;;12.33;56.33
63554;BME280;49699;48.072;7.800;2023-04-15T09:06:40;98522.41;;;12.48;55.62
63554;BME280;49699;48.072;7.800;2023-04-15T09:09:06;98524.38;;;12.67;55.54
63554;BME280;49699;48.072;7.800;2023-04-15T09:11:32;98524.91;;;12.82;55.10
63554;BME280;49699;48.072;7.800;2023-04-15T09:13:57;98531.56;;;12.86;54.86
63554;BME280;49699;48.072;7.800;2023-04-15T09:16:22;98534.03;;;12.88;54.75
63554;BME280;49699;48.072;7.800;2023-04-15T09:18:48;98536.25;;;12.92;54.69
63554;BME280;49699;48.072;7.800;2023-04-15T09:21:14;98537.44;;;12.99;54.42
63554;BME280;49699;48.072;7.800;2023-04-15T09:23:40;98532.97;;;13.11;54.19
63554;BME280;49699;48.072;7.800;2023-04-15T09:26:06;98536.41;;;13.23;53.73
63554;BME280;49699;48.072;7.800;2023-04-15T09:28:32;98537.22;;;13.44;53.23
63554;BME280;49699;48.072;7.800;2023-04-15T09:30:58;98541.34;;;13.67;52.61
63554;BME280;49699;48.072;7.800;2023-04-15T09:33:24;98541.72;;;13.83;52.25
63554;BME280;49699;48.072;7.800;2023-04-15T09:38:22;98546.50;;;14.09;51.36
63554;BME280;49699;48.072;7.800;2023-04-15T09:40:47;98538.88;;;14.27;51.10
63554;BME280;49699;48.072;7.800;2023-04-15T09:43:13;98542.19;;;14.29;51.23
63554;BME280;49699;48.072;7.800;2023-04-15T09:45:38;98553.25;;;14.42;51.02
63554;BME280;49699;48.072;7.800;2023-04-15T09:50:42;98556.78;;;14.31;51.12
63554;BME280;49699;48.072;7.800;2023-04-15T09:53:08;98555.88;;;14.42;51.11
63554;BME280;49699;48.072;7.800;2023-04-15T09:55:33;98552.47;;;14.51;50.63
63554;BME280;49699;48.072;7.800;2023-04-15T09:57:59;98559.06;;;14.55;50.69
63554;BME280;49699;48.072;7.800;2023-04-15T10:00:24;98562.97;;;14.70;50.41
63554;BME280;49699;48.072;7.800;2023-04-15T10:02:49;98567.28;;;14.81;50.15
63554;BME280;49699;48.072;7.800;2023-04-15T10:05:15;98566.03;;;14.85;50.04
63554;BME280;49699;48.072;7.800;2023-04-15T10:07:43;98568.94;;;15.01;49.68
63554;BME280;49699;48.072;7.800;2023-04-15T10:10:08;98568.50;;;15.06;48.86
63554;BME280;49699;48.072;7.800;2023-04-15T10:12:36;98576.66;;;15.32;48.26
63554;BME280;49699;48.072;7.800;2023-04-15T10:15:02;98567.34;;;15.85;47.25
63554;BME280;49699;48.072;7.800;2023-04-15T10:17:32;98555.69;;;16.35;45.93
63554;BME280;49699;48.072;7.800;2023-04-15T10:20:02;98559.78;;;16.47;45.25
63554;BME280;49699;48.072;7.800;2023-04-15T10:22:28;98551.91;;;16.47;44.86
63554;BME280;49699;48.072;7.800;2023-04-15T10:24:54;98557.63;;;16.60;44.58
63554;BME280;49699;48.072;7.800;2023-04-15T10:27:20;98555.06;;;16.95;43.91
63554;BME280;49699;48.072;7.800;2023-04-15T10:29:46;98556.50;;;17.08;43.78
63554;BME280;49699;48.072;7.800;2023-04-15T10:32:12;98564.75;;;17.13;43.48
63554;BME280;49699;48.072;7.800;2023-04-15T10:34:38;98562.34;;;16.84;43.18
63554;BME280;49699;48.072;7.800;2023-04-15T10:37:04;98568.50;;;16.92;43.09
63554;BME280;49699;48.072;7.800;2023-04-15T10:42:05;98570.97;;;17.65;41.76
63554;BME280;49699;48.072;7.800;2023-04-15T10:44:31;98569.91;;;18.10;40.21
63554;BME280;49699;48.072;7.800;2023-04-15T10:46:56;98569.97;;;18.18;39.99
63554;BME280;49699;48.072;7.800;2023-04-15T10:49:25;98574.53;;;18.08;40.00
63554;BME280;49699;48.072;7.800;2023-04-15T10:51:51;98580.50;;;17.92;40.30
63554;BME280;49699;48.072;7.800;2023-04-15T10:56:49;98581.19;;;18.28;39.61
63554;BME280;49699;48.072;7.800;2023-04-15T10:59:15;98571.38;;;18.46;39.18
63554;BME280;49699;48.072;7.800;2023-04-15T11:01:53;98580.06;;;18.30;39.55
63554;BME280;49699;48.072;7.800;2023-04-15T11:07:05;98583.41;;;18.49;39.07
63554;BME280;49699;48.072;7.800;2023-04-15T11:09:30;98585.75;;;18.18;39.03
63554;BME280;49699;48.072;7.800;2023-04-15T11:12:04;98590.34;;;17.64;40.25
63554;BME280;49699;48.072;7.800;2023-04-15T11:14:31;98591.19;;;17.11;41.39
63554;BME280;49699;48.072;7.800;2023-04-15T11:16:57;98597.47;;;16.65;42.47
63554;BME280;49699;48.072;7.800;2023-04-15T11:19:22;98595.34;;;16.31;43.05
63554;BME280;49699;48.072;7.800;2023-04-15T11:21:47;98601.28;;;16.06;43.39
63554;BME280;49699;48.072;7.800;2023-04-15T11:24:22;98607.78;;;16.02;43.80
63554;BME280;49699;48.072;7.800;2023-04-15T11:26:50;98601.03;;;15.90;43.95
63554;BME280;49699;48.072;7.800;2023-04-15T11:29:21;98605.09;;;15.65;44.30
63554;BME280;49699;48.072;7.800;2023-04-15T11:31:54;98599.41;;;15.50;44.61
63554;BME280;49699;48.072;7.800;2023-04-15T11:34:26;98610.34;;;15.36;45.71
63554;BME280;49699;48.072;7.800;2023-04-15T11:36:51;98609.75;;;15.23;45.91
63554;BME280;49699;48.072;7.800;2023-04-15T11:39:21;98616.97;;;15.21;45.86
63554;BME280;49699;48.072;7.800;2023-04-15T11:41:46;98611.28;;;15.16;46.13
63554;BME280;49699;48.072;7.800;2023-04-15T11:44:15;98613.63;;;15.09;45.86
63554;BME280;49699;48.072;7.800;2023-04-15T11:46:41;98616.81;;;15.03;46.12
63554;BME280;49699;48.072;7.800;2023-04-15T11:49:06;98615.53;;;14.98;46.20
63554;BME280;49699;48.072;7.800;2023-04-15T11:51:32;98614.72;;;14.97;46.42
63554;BME280;49699;48.072;7.800;2023-04-15T11:53:58;98622.56;;;15.07;46.27
63554;BME280;49699;48.072;7.800;2023-04-15T11:56:24;98624.25;;;15.08;45.98
63554;BME280;49699;48.072;7.800;2023-04-15T11:58:57;98627.81;;;15.07;46.01
63554;BME280;49699;48.072;7.800;2023-04-15T12:01:30;98627.16;;;15.14;45.85
63554;BME280;49699;48.072;7.800;2023-04-15T12:03:55;98631.84;;;15.30;45.42
63554;BME280;49699;48.072;7.800;2023-04-15T12:06:21;98633.63;;;15.29;45.37
63554;BME280;49699;48.072;7.800;2023-04-15T12:16:22;98642.34;;;15.49;44.78
63554;BME280;49699;48.072;7.800;2023-04-15T12:18:51;98644.97;;;15.59;43.95
63554;BME280;49699;48.072;7.800;2023-04-15T12:21:20;98655.47;;;15.78;43.44
63554;BME280;49699;48.072;7.800;2023-04-15T12:23:47;98654.03;;;16.03;42.49
63554;BME280;49699;48.072;7.800;2023-04-15T12:26:13;98663.38;;;16.25;41.81
63554;BME280;49699;48.072;7.800;2023-04-15T12:28:39;98656.22;;;16.54;41.12
63554;BME280;49699;48.072;7.800;2023-04-15T12:31:06;98656.97;;;16.84;40.24
63554;BME280;49699;48.072;7.800;2023-04-15T12:33:31;98651.25;;;16.88;38.90
63554;BME280;49699;48.072;7.800;2023-04-15T12:35:57;98661.63;;;16.90;38.71
63554;BME280;49699;48.072;7.800;2023-04-15T12:38:22;98662.06;;;16.85;38.29
63554;BME280;49699;48.072;7.800;2023-04-15T12:40:47;98664.44;;;16.79;38.41
63554;BME280;49699;48.072;7.800;2023-04-15T12:43:13;98666.94;;;16.80;38.36
63554;BME280;49699;48.072;7.800;2023-04-15T12:45:40;98673.44;;;16.76;38.61
63554;BME280;49699;48.072;7.800;2023-04-15T12:48:05;98671.53;;;16.69;38.33
63554;BME280;49699;48.072;7.800;2023-04-15T12:50:32;98674.81;;;16.43;38.35
63554;BME280;49699;48.072;7.800;2023-04-15T12:52:57;98669.34;;;16.27;38.77
63554;BME280;49699;48.072;7.800;2023-04-15T12:55:23;98676.66;;;16.14;39.55
63554;BME280;49699;48.072;7.800;2023-04-15T12:57:48;98687.47;;;16.01;40.53
63554;BME280;49699;48.072;7.800;2023-04-15T13:00:13;98687.34;;;16.03;40.71
63554;BME280;49699;48.072;7.800;2023-04-15T13:02:39;98695.34;;;16.11;40.76
63554;BME280;49699;48.072;7.800;2023-04-15T13:05:04;98691.44;;;16.24;40.28
63554;BME280;49699;48.072;7.800;2023-04-15T13:07:29;98696.06;;;16.50;39.79
63554;BME280;49699;48.072;7.800;2023-04-15T13:09:55;98686.50;;;16.95;38.22
63554;BME280;49699;48.072;7.800;2023-04-15T13:12:20;98684.16;;;17.38;37.32
63554;BME280;49699;48.072;7.800;2023-04-15T13:14:46;98697.81;;;17.41;36.98
63554;BME280;49699;48.072;7.800;2023-04-15T13:17:11;98698.44;;;17.35;36.91
63554;BME280;49699;48.072;7.800;2023-04-15T13:19:37;98697.69;;;17.43;36.74
63554;BME280;49699;48.072;7.800;2023-04-15T13:22:02;98696.00;;;17.69;36.21